KALI/ALI METAR and TAF weather

Enter ICAO airport designator
Station Type Date Time Source
KALI METAR 2022/01/29 01:53 UTC NOAA

KALI 290153Z AUTO 32005KT 10SM CLR 07/01 A3047 RMK AO2 SLP319 T00720006


Station Type Date Time Source
KALI Decoded METAR 2022/01/29 01:53 UTC NOAA

ALICE INTERNATIONAL AIRPORT, TX, United States (KALI) 27-44N 098-01W 53M
Jan 28, 2022 - 08:53 PM EST / 2022.01.29 0153 UTC
Wind: from the NW (320 degrees) at 6 MPH (5 KT):0
Visibility: 10 mile(s):0
Sky conditions: clear
Temperature: 45.0 F (7.2 C)
Dew Point: 33.1 F (0.6 C)
Relative Humidity: 62%
Pressure (altimeter): 30.47 in. Hg (1031 hPa)
ob: KALI 290153Z AUTO 32005KT 10SM CLR 07/01 A3047 RMK AO2 SLP319 T00720006
cycle: 2

Station Type Date Time Source
KALI TAF 2022/01/28 18:39 UTC NOAA

TAF KALI 281736Z 2818/2918 01012G17KT P6SM FEW035 OVC070
FM282100 36008KT P6SM FEW045 SCT150
FM290300 VRB04KT P6SM FEW250
FM291600 22007KT P6SM FEW250

Example: see airport list